sensor_id;sensor_type;location;lat;lon;timestamp;P1;durP1;ratioP1;P2;durP2;ratioP2
41099;SDS011;26844;53.686;-6.346;2024-03-08T00:00:28;3.70;;;3.60;;
41099;SDS011;26844;53.686;-6.346;2024-03-08T00:02:53;3.20;;;3.10;;
41099;SDS011;26844;53.686;-6.346;2024-03-08T00:05:19;3.50;;;3.40;;
41099;SDS011;26844;53.686;-6.346;2024-03-08T00:07:44;3.55;;;3.45;;
41099;SDS011;26844;53.686;-6.346;2024-03-08T00:10:10;3.17;;;3.08;;
41099;SDS011;26844;53.686;-6.346;2024-03-08T00:12:39;3.40;;;3.30;;
41099;SDS011;26844;53.686;-6.346;2024-03-08T00:15:07;3.70;;;3.60;;
41099;SDS011;26844;53.686;-6.346;2024-03-08T00:17:33;3.80;;;3.70;;
41099;SDS011;26844;53.686;-6.346;2024-03-08T00:19:58;3.85;;;3.75;;
41099;SDS011;26844;53.686;-6.346;2024-03-08T00:22:23;3.75;;;3.65;;
41099;SDS011;26844;53.686;-6.346;2024-03-08T00:24:49;3.72;;;3.63;;
41099;SDS011;26844;53.686;-6.346;2024-03-08T00:27:17;3.42;;;3.33;;
41099;SDS011;26844;53.686;-6.346;2024-03-08T00:29:44;3.72;;;3.63;;
41099;SDS011;26844;53.686;-6.346;2024-03-08T00:32:10;3.33;;;3.22;;
41099;SDS011;26844;53.686;-6.346;2024-03-08T00:34:36;3.30;;;3.20;;
41099;SDS011;26844;53.686;-6.346;2024-03-08T00:37:02;3.80;;;3.70;;
41099;SDS011;26844;53.686;-6.346;2024-03-08T00:39:27;3.75;;;3.65;;
41099;SDS011;26844;53.686;-6.346;2024-03-08T00:41:52;3.78;;;3.67;;
41099;SDS011;26844;53.686;-6.346;2024-03-08T00:44:18;3.00;;;2.90;;
41099;SDS011;26844;53.686;-6.346;2024-03-08T00:46:46;3.40;;;3.30;;
41099;SDS011;26844;53.686;-6.346;2024-03-08T00:49:11;3.50;;;3.40;;
41099;SDS011;26844;53.686;-6.346;2024-03-08T00:51:37;3.30;;;3.20;;
41099;SDS011;26844;53.686;-6.346;2024-03-08T00:54:02;3.58;;;3.47;;
41099;SDS011;26844;53.686;-6.346;2024-03-08T00:56:28;3.00;;;2.90;;
41099;SDS011;26844;53.686;-6.346;2024-03-08T00:58:53;3.30;;;3.20;;
41099;SDS011;26844;53.686;-6.346;2024-03-08T01:01:19;3.35;;;3.25;;
41099;SDS011;26844;53.686;-6.346;2024-03-08T01:03:44;3.90;;;3.80;;
41099;SDS011;26844;53.686;-6.346;2024-03-08T01:06:09;3.53;;;3.42;;
41099;SDS011;26844;53.686;-6.346;2024-03-08T01:08:36;3.20;;;3.10;;
41099;SDS011;26844;53.686;-6.346;2024-03-08T01:11:03;2.85;;;2.75;;
41099;SDS011;26844;53.686;-6.346;2024-03-08T01:13:29;3.00;;;2.90;;
41099;SDS011;26844;53.686;-6.346;2024-03-08T01:15:55;3.05;;;2.95;;
41099;SDS011;26844;53.686;-6.346;2024-03-08T01:18:20;3.42;;;3.33;;
41099;SDS011;26844;53.686;-6.346;2024-03-08T01:20:45;3.40;;;3.30;;
41099;SDS011;26844;53.686;-6.346;2024-03-08T01:23:11;3.00;;;2.90;;
41099;SDS011;26844;53.686;-6.346;2024-03-08T01:25:36;2.80;;;2.70;;
41099;SDS011;26844;53.686;-6.346;2024-03-08T01:28:01;2.72;;;2.63;;
41099;SDS011;26844;53.686;-6.346;2024-03-08T01:30:27;2.33;;;2.30;;
41099;SDS011;26844;53.686;-6.346;2024-03-08T01:32:53;2.60;;;2.50;;
41099;SDS011;26844;53.686;-6.346;2024-03-08T01:35:18;2.70;;;2.60;;
41099;SDS011;26844;53.686;-6.346;2024-03-08T01:37:44;3.28;;;3.17;;
41099;SDS011;26844;53.686;-6.346;2024-03-08T01:40:09;3.20;;;3.10;;
41099;SDS011;26844;53.686;-6.346;2024-03-08T01:42:34;2.80;;;2.70;;
41099;SDS011;26844;53.686;-6.346;2024-03-08T01:47:28;2.90;;;2.80;;
41099;SDS011;26844;53.686;-6.346;2024-03-08T01:49:53;3.40;;;3.30;;
41099;SDS011;26844;53.686;-6.346;2024-03-08T01:52:18;3.17;;;3.08;;
41099;SDS011;26844;53.686;-6.346;2024-03-08T01:54:45;2.10;;;2.10;;
41099;SDS011;26844;53.686;-6.346;2024-03-08T01:57:11;2.60;;;2.50;;
41099;SDS011;26844;53.686;-6.346;2024-03-08T01:59:36;3.90;;;3.80;;
41099;SDS011;26844;53.686;-6.346;2024-03-08T02:02:02;3.08;;;2.97;;
41099;SDS011;26844;53.686;-6.346;2024-03-08T02:04:29;5.28;;;5.07;;
41099;SDS011;26844;53.686;-6.346;2024-03-08T02:06:56;5.40;;;5.20;;
41099;SDS011;26844;53.686;-6.346;2024-03-08T02:09:23;5.85;;;5.65;;
41099;SDS011;26844;53.686;-6.346;2024-03-08T02:11:49;6.30;;;6.10;;
41099;SDS011;26844;53.686;-6.346;2024-03-08T02:14:15;7.20;;;6.90;;
41099;SDS011;26844;53.686;-6.346;2024-03-08T02:16:40;7.68;;;7.38;;
41099;SDS011;26844;53.686;-6.346;2024-03-08T02:19:05;9.00;;;8.70;;
41099;SDS011;26844;53.686;-6.346;2024-03-08T02:21:34;8.15;;;7.85;;
41099;SDS011;26844;53.686;-6.346;2024-03-08T02:24:00;6.50;;;6.30;;
41099;SDS011;26844;53.686;-6.346;2024-03-08T02:26:25;6.80;;;6.60;;
41099;SDS011;26844;53.686;-6.346;2024-03-08T02:28:50;6.03;;;5.82;;
41099;SDS011;26844;53.686;-6.346;2024-03-08T02:31:16;6.03;;;5.82;;
41099;SDS011;26844;53.686;-6.346;2024-03-08T02:33:41;6.10;;;5.90;;
41099;SDS011;26844;53.686;-6.346;2024-03-08T02:36:06;6.18;;;5.97;;
41099;SDS011;26844;53.686;-6.346;2024-03-08T02:38:32;5.80;;;5.60;;
41099;SDS011;26844;53.686;-6.346;2024-03-08T02:40:58;6.28;;;6.07;;
41099;SDS011;26844;53.686;-6.346;2024-03-08T02:43:23;5.80;;;5.60;;
41099;SDS011;26844;53.686;-6.346;2024-03-08T02:45:49;5.88;;;5.68;;
41099;SDS011;26844;53.686;-6.346;2024-03-08T02:48:15;5.30;;;5.10;;
41099;SDS011;26844;53.686;-6.346;2024-03-08T02:50:41;5.38;;;5.18;;
41099;SDS011;26844;53.686;-6.346;2024-03-08T02:53:10;5.65;;;5.45;;
41099;SDS011;26844;53.686;-6.346;2024-03-08T02:55:36;5.22;;;5.03;;
41099;SDS011;26844;53.686;-6.346;2024-03-08T02:58:02;5.50;;;5.30;;
41099;SDS011;26844;53.686;-6.346;2024-03-08T03:00:28;4.27;;;4.17;;
41099;SDS011;26844;53.686;-6.346;2024-03-08T03:02:55;4.47;;;4.38;;
41099;SDS011;26844;53.686;-6.346;2024-03-08T03:05:21;4.10;;;4.00;;
41099;SDS011;26844;53.686;-6.346;2024-03-08T03:07:47;4.10;;;4.00;;
41099;SDS011;26844;53.686;-6.346;2024-03-08T03:10:13;4.07;;;3.97;;
41099;SDS011;26844;53.686;-6.346;2024-03-08T03:12:42;4.20;;;4.10;;
41099;SDS011;26844;53.686;-6.346;2024-03-08T03:15:07;4.20;;;4.10;;
41099;SDS011;26844;53.686;-6.346;2024-03-08T03:17:33;4.32;;;4.22;;
41099;SDS011;26844;53.686;-6.346;2024-03-08T03:19:58;4.10;;;4.00;;
41099;SDS011;26844;53.686;-6.346;2024-03-08T03:22:23;3.80;;;3.70;;
41099;SDS011;26844;53.686;-6.346;2024-03-08T03:24:50;3.80;;;3.70;;
41099;SDS011;26844;53.686;-6.346;2024-03-08T03:27:16;3.90;;;3.80;;
41099;SDS011;26844;53.686;-6.346;2024-03-08T03:29:42;4.32;;;4.22;;
41099;SDS011;26844;53.686;-6.346;2024-03-08T03:32:10;4.00;;;3.90;;
41099;SDS011;26844;53.686;-6.346;2024-03-08T03:34:37;4.45;;;4.35;;
41099;SDS011;26844;53.686;-6.346;2024-03-08T03:37:02;3.95;;;3.85;;
41099;SDS011;26844;53.686;-6.346;2024-03-08T03:39:28;4.55;;;4.45;;
41099;SDS011;26844;53.686;-6.346;2024-03-08T03:41:56;4.00;;;3.90;;
41099;SDS011;26844;53.686;-6.346;2024-03-08T03:44:22;4.63;;;4.53;;
41099;SDS011;26844;53.686;-6.346;2024-03-08T03:46:48;4.72;;;4.60;;
41099;SDS011;26844;53.686;-6.346;2024-03-08T03:49:15;4.27;;;4.17;;
41099;SDS011;26844;53.686;-6.346;2024-03-08T03:51:40;4.82;;;4.65;;
41099;SDS011;26844;53.686;-6.346;2024-03-08T03:54:06;4.43;;;4.32;;
41099;SDS011;26844;53.686;-6.346;2024-03-08T03:56:31;4.00;;;3.90;;
41099;SDS011;26844;53.686;-6.346;2024-03-08T03:58:56;4.32;;;4.22;;
41099;SDS011;26844;53.686;-6.346;2024-03-08T04:01:22;4.40;;;4.30;;
41099;SDS011;26844;53.686;-6.346;2024-03-08T04:03:47;4.38;;;4.28;;
41099;SDS011;26844;53.686;-6.346;2024-03-08T04:06:12;4.30;;;4.20;;
41099;SDS011;26844;53.686;-6.346;2024-03-08T04:08:39;3.88;;;3.78;;
41099;SDS011;26844;53.686;-6.346;2024-03-08T04:11:04;3.80;;;3.70;;
41099;SDS011;26844;53.686;-6.346;2024-03-08T04:13:29;3.90;;;3.80;;
41099;SDS011;26844;53.686;-6.346;2024-03-08T04:15:55;4.00;;;3.90;;
41099;SDS011;26844;53.686;-6.346;2024-03-08T04:18:20;4.45;;;4.35;;
41099;SDS011;26844;53.686;-6.346;2024-03-08T04:20:45;4.38;;;4.28;;
41099;SDS011;26844;53.686;-6.346;2024-03-08T04:23:10;4.43;;;4.32;;
41099;SDS011;26844;53.686;-6.346;2024-03-08T04:25:36;4.47;;;4.38;;
41099;SDS011;26844;53.686;-6.346;2024-03-08T04:28:01;4.43;;;4.32;;
41099;SDS011;26844;53.686;-6.346;2024-03-08T04:30:26;4.07;;;3.97;;
41099;SDS011;26844;53.686;-6.346;2024-03-08T04:32:53;3.90;;;3.80;;
41099;SDS011;26844;53.686;-6.346;2024-03-08T04:35:19;3.50;;;3.40;;
41099;SDS011;26844;53.686;-6.346;2024-03-08T04:37:45;3.60;;;3.50;;
41099;SDS011;26844;53.686;-6.346;2024-03-08T04:40:10;3.58;;;3.47;;
41099;SDS011;26844;53.686;-6.346;2024-03-08T04:42:36;3.88;;;3.78;;
41099;SDS011;26844;53.686;-6.346;2024-03-08T04:45:02;3.60;;;3.50;;
41099;SDS011;26844;53.686;-6.346;2024-03-08T04:47:29;3.28;;;3.17;;
41099;SDS011;26844;53.686;-6.346;2024-03-08T04:49:54;3.70;;;3.60;;
41099;SDS011;26844;53.686;-6.346;2024-03-08T04:52:20;3.80;;;3.70;;
41099;SDS011;26844;53.686;-6.346;2024-03-08T04:54:47;3.85;;;3.75;;
41099;SDS011;26844;53.686;-6.346;2024-03-08T04:57:12;3.20;;;3.10;;
41099;SDS011;26844;53.686;-6.346;2024-03-08T04:59:37;3.75;;;3.65;;
41099;SDS011;26844;53.686;-6.346;2024-03-08T05:02:03;3.80;;;3.70;;
41099;SDS011;26844;53.686;-6.346;2024-03-08T05:04:28;3.67;;;3.58;;
41099;SDS011;26844;53.686;-6.346;2024-03-08T05:06:54;3.65;;;3.55;;
41099;SDS011;26844;53.686;-6.346;2024-03-08T05:09:19;3.70;;;3.60;;
41099;SDS011;26844;53.686;-6.346;2024-03-08T05:11:45;3.33;;;3.22;;
41099;SDS011;26844;53.686;-6.346;2024-03-08T05:14:10;3.67;;;3.58;;
41099;SDS011;26844;53.686;-6.346;2024-03-08T05:16:36;3.47;;;3.38;;
41099;SDS011;26844;53.686;-6.346;2024-03-08T05:19:01;3.40;;;3.30;;
41099;SDS011;26844;53.686;-6.346;2024-03-08T05:21:27;3.60;;;3.50;;
41099;SDS011;26844;53.686;-6.346;2024-03-08T05:23:53;3.72;;;3.63;;
41099;SDS011;26844;53.686;-6.346;2024-03-08T05:26:19;3.85;;;3.75;;
41099;SDS011;26844;53.686;-6.346;2024-03-08T05:28:44;3.47;;;3.38;;
41099;SDS011;26844;53.686;-6.346;2024-03-08T05:31:09;3.50;;;3.40;;
41099;SDS011;26844;53.686;-6.346;2024-03-08T05:33:35;3.65;;;3.55;;
41099;SDS011;26844;53.686;-6.346;2024-03-08T05:36:00;3.72;;;3.63;;
41099;SDS011;26844;53.686;-6.346;2024-03-08T05:38:28;3.90;;;3.80;;
41099;SDS011;26844;53.686;-6.346;2024-03-08T05:40:54;3.38;;;3.28;;
41099;SDS011;26844;53.686;-6.346;2024-03-08T05:43:19;3.58;;;3.47;;
41099;SDS011;26844;53.686;-6.346;2024-03-08T05:45:45;3.42;;;3.33;;
41099;SDS011;26844;53.686;-6.346;2024-03-08T05:48:10;3.40;;;3.30;;
41099;SDS011;26844;53.686;-6.346;2024-03-08T05:50:37;3.80;;;3.70;;
41099;SDS011;26844;53.686;-6.346;2024-03-08T05:53:03;3.70;;;3.60;;
41099;SDS011;26844;53.686;-6.346;2024-03-08T05:55:31;3.63;;;3.53;;
41099;SDS011;26844;53.686;-6.346;2024-03-08T05:58:00;3.20;;;3.10;;
41099;SDS011;26844;53.686;-6.346;2024-03-08T06:00:26;3.20;;;3.10;;
41099;SDS011;26844;53.686;-6.346;2024-03-08T06:02:51;3.40;;;3.30;;
41099;SDS011;26844;53.686;-6.346;2024-03-08T06:05:16;3.63;;;3.53;;
41099;SDS011;26844;53.686;-6.346;2024-03-08T06:07:42;3.95;;;3.85;;
41099;SDS011;26844;53.686;-6.346;2024-03-08T06:10:08;3.50;;;3.40;;
41099;SDS011;26844;53.686;-6.346;2024-03-08T06:12:35;3.67;;;3.58;;
41099;SDS011;26844;53.686;-6.346;2024-03-08T06:15:05;3.80;;;3.70;;
41099;SDS011;26844;53.686;-6.346;2024-03-08T06:17:30;3.67;;;3.58;;
41099;SDS011;26844;53.686;-6.346;2024-03-08T06:19:55;3.63;;;3.53;;
41099;SDS011;26844;53.686;-6.346;2024-03-08T06:22:21;3.13;;;3.03;;
41099;SDS011;26844;53.686;-6.346;2024-03-08T06:24:46;3.90;;;3.80;;
41099;SDS011;26844;53.686;-6.346;2024-03-08T06:27:12;4.07;;;3.97;;
41099;SDS011;26844;53.686;-6.346;2024-03-08T06:29:39;3.50;;;3.40;;
41099;SDS011;26844;53.686;-6.346;2024-03-08T06:32:04;3.88;;;3.78;;
41099;SDS011;26844;53.686;-6.346;2024-03-08T06:34:29;3.88;;;3.78;;
41099;SDS011;26844;53.686;-6.346;2024-03-08T06:36:57;3.72;;;3.63;;
41099;SDS011;26844;53.686;-6.346;2024-03-08T06:39:25;3.88;;;3.78;;
41099;SDS011;26844;53.686;-6.346;2024-03-08T06:41:51;3.92;;;3.83;;
41099;SDS011;26844;53.686;-6.346;2024-03-08T06:44:16;3.90;;;3.80;;
41099;SDS011;26844;53.686;-6.346;2024-03-08T06:46:41;4.30;;;4.20;;
41099;SDS011;26844;53.686;-6.346;2024-03-08T06:49:07;3.97;;;3.88;;
41099;SDS011;26844;53.686;-6.346;2024-03-08T06:51:34;4.10;;;4.00;;
41099;SDS011;26844;53.686;-6.346;2024-03-08T06:53:59;4.30;;;4.20;;
41099;SDS011;26844;53.686;-6.346;2024-03-08T06:56:24;4.28;;;4.18;;
41099;SDS011;26844;53.686;-6.346;2024-03-08T06:58:50;3.95;;;3.85;;
41099;SDS011;26844;53.686;-6.346;2024-03-08T07:01:15;3.75;;;3.65;;
41099;SDS011;26844;53.686;-6.346;2024-03-08T07:03:42;4.07;;;3.97;;
41099;SDS011;26844;53.686;-6.346;2024-03-08T07:06:10;4.13;;;4.03;;
41099;SDS011;26844;53.686;-6.346;2024-03-08T07:08:36;4.78;;;4.63;;
41099;SDS011;26844;53.686;-6.346;2024-03-08T07:11:01;4.50;;;4.40;;
41099;SDS011;26844;53.686;-6.346;2024-03-08T07:13:27;4.68;;;4.57;;
41099;SDS011;26844;53.686;-6.346;2024-03-08T07:15:55;4.15;;;4.05;;
41099;SDS011;26844;53.686;-6.346;2024-03-08T07:18:20;4.80;;;4.60;;
41099;SDS011;26844;53.686;-6.346;2024-03-08T07:20:47;5.00;;;4.80;;
41099;SDS011;26844;53.686;-6.346;2024-03-08T07:23:12;4.55;;;4.45;;
41099;SDS011;26844;53.686;-6.346;2024-03-08T07:25:57;4.20;;;4.10;;
41099;SDS011;26844;53.686;-6.346;2024-03-08T07:28:23;4.20;;;4.10;;
41099;SDS011;26844;53.686;-6.346;2024-03-08T07:30:48;4.60;;;4.50;;
41099;SDS011;26844;53.686;-6.346;2024-03-08T07:33:13;5.13;;;4.93;;
41099;SDS011;26844;53.686;-6.346;2024-03-08T07:35:39;4.72;;;4.63;;
41099;SDS011;26844;53.686;-6.346;2024-03-08T07:38:05;4.80;;;4.65;;
41099;SDS011;26844;53.686;-6.346;2024-03-08T07:40:40;4.78;;;4.63;;
41099;SDS011;26844;53.686;-6.346;2024-03-08T07:43:08;4.40;;;4.30;;
41099;SDS011;26844;53.686;-6.346;2024-03-08T07:45:33;4.55;;;4.45;;
41099;SDS011;26844;53.686;-6.346;2024-03-08T07:47:59;5.10;;;4.90;;
41099;SDS011;26844;53.686;-6.346;2024-03-08T07:50:24;5.03;;;4.82;;
41099;SDS011;26844;53.686;-6.346;2024-03-08T07:52:50;5.38;;;5.18;;
41099;SDS011;26844;53.686;-6.346;2024-03-08T07:55:16;5.00;;;4.80;;
41099;SDS011;26844;53.686;-6.346;2024-03-08T07:57:41;5.20;;;5.00;;
41099;SDS011;26844;53.686;-6.346;2024-03-08T08:00:07;5.32;;;5.13;;
41099;SDS011;26844;53.686;-6.346;2024-03-08T08:02:33;5.13;;;4.93;;
41099;SDS011;26844;53.686;-6.346;2024-03-08T08:04:59;6.20;;;6.00;;
41099;SDS011;26844;53.686;-6.346;2024-03-08T08:07:24;5.70;;;5.50;;
41099;SDS011;26844;53.686;-6.346;2024-03-08T08:09:50;5.47;;;5.28;;
41099;SDS011;26844;53.686;-6.346;2024-03-08T08:12:15;5.90;;;5.70;;
41099;SDS011;26844;53.686;-6.346;2024-03-08T08:14:41;6.53;;;6.32;;
41099;SDS011;26844;53.686;-6.346;2024-03-08T08:17:06;6.28;;;6.07;;
41099;SDS011;26844;53.686;-6.346;2024-03-08T08:19:33;5.72;;;5.53;;
41099;SDS011;26844;53.686;-6.346;2024-03-08T08:22:00;6.38;;;6.18;;
41099;SDS011;26844;53.686;-6.346;2024-03-08T08:24:26;6.25;;;6.05;;
41099;SDS011;26844;53.686;-6.346;2024-03-08T08:26:52;5.72;;;5.53;;
41099;SDS011;26844;53.686;-6.346;2024-03-08T08:29:17;5.57;;;5.38;;
41099;SDS011;26844;53.686;-6.346;2024-03-08T08:31:43;5.28;;;5.07;;
41099;SDS011;26844;53.686;-6.346;2024-03-08T08:34:09;5.07;;;4.88;;
41099;SDS011;26844;53.686;-6.346;2024-03-08T08:36:36;5.10;;;4.90;;
41099;SDS011;26844;53.686;-6.346;2024-03-08T08:39:02;5.05;;;4.85;;
41099;SDS011;26844;53.686;-6.346;2024-03-08T08:41:28;4.75;;;4.60;;
41099;SDS011;26844;53.686;-6.346;2024-03-08T08:43:54;5.25;;;5.05;;
41099;SDS011;26844;53.686;-6.346;2024-03-08T08:46:19;5.15;;;4.95;;
41099;SDS011;26844;53.686;-6.346;2024-03-08T08:48:49;5.38;;;5.18;;
41099;SDS011;26844;53.686;-6.346;2024-03-08T08:51:14;5.47;;;5.28;;
41099;SDS011;26844;53.686;-6.346;2024-03-08T08:53:40;5.32;;;5.13;;
41099;SDS011;26844;53.686;-6.346;2024-03-08T08:56:08;5.22;;;5.03;;
41099;SDS011;26844;53.686;-6.346;2024-03-08T08:58:33;5.38;;;5.18;;
41099;SDS011;26844;53.686;-6.346;2024-03-08T09:00:59;5.63;;;5.43;;
41099;SDS011;26844;53.686;-6.346;2024-03-08T09:03:24;5.65;;;5.45;;
41099;SDS011;26844;53.686;-6.346;2024-03-08T09:05:52;5.50;;;5.30;;
41099;SDS011;26844;53.686;-6.346;2024-03-08T09:08:17;5.40;;;5.20;;
41099;SDS011;26844;53.686;-6.346;2024-03-08T09:10:42;5.40;;;5.20;;
41099;SDS011;26844;53.686;-6.346;2024-03-08T09:13:08;4.60;;;4.50;;
41099;SDS011;26844;53.686;-6.346;2024-03-08T09:15:35;4.90;;;4.70;;
41099;SDS011;26844;53.686;-6.346;2024-03-08T09:18:01;4.45;;;4.35;;
41099;SDS011;26844;53.686;-6.346;2024-03-08T09:20:27;4.38;;;4.28;;
41099;SDS011;26844;53.686;-6.346;2024-03-08T09:22:53;4.55;;;4.45;;
41099;SDS011;26844;53.686;-6.346;2024-03-08T09:25:19;4.43;;;4.32;;
41099;SDS011;26844;53.686;-6.346;2024-03-08T09:27:44;3.80;;;3.70;;
41099;SDS011;26844;53.686;-6.346;2024-03-08T09:30:11;3.80;;;3.70;;
41099;SDS011;26844;53.686;-6.346;2024-03-08T09:32:38;4.00;;;3.90;;
41099;SDS011;26844;53.686;-6.346;2024-03-08T09:35:03;4.20;;;4.10;;
41099;SDS011;26844;53.686;-6.346;2024-03-08T09:37:31;4.18;;;4.07;;
41099;SDS011;26844;53.686;-6.346;2024-03-08T09:39:57;3.85;;;3.75;;
41099;SDS011;26844;53.686;-6.346;2024-03-08T09:42:24;3.80;;;3.70;;
41099;SDS011;26844;53.686;-6.346;2024-03-08T09:44:49;3.63;;;3.53;;
41099;SDS011;26844;53.686;-6.346;2024-03-08T09:47:15;3.40;;;3.30;;
41099;SDS011;26844;53.686;-6.346;2024-03-08T09:49:40;3.60;;;3.50;;
41099;SDS011;26844;53.686;-6.346;2024-03-08T09:52:06;3.60;;;3.50;;
41099;SDS011;26844;53.686;-6.346;2024-03-08T09:54:32;3.65;;;3.55;;
41099;SDS011;26844;53.686;-6.346;2024-03-08T09:56:58;3.70;;;3.60;;
41099;SDS011;26844;53.686;-6.346;2024-03-08T09:59:24;3.70;;;3.60;;
41099;SDS011;26844;53.686;-6.346;2024-03-08T10:01:53;3.40;;;3.30;;
41099;SDS011;26844;53.686;-6.346;2024-03-08T10:04:21;3.60;;;3.50;;
41099;SDS011;26844;53.686;-6.346;2024-03-08T10:06:47;3.80;;;3.70;;
41099;SDS011;26844;53.686;-6.346;2024-03-08T10:09:12;3.90;;;3.80;;
41099;SDS011;26844;53.686;-6.346;2024-03-08T10:11:39;3.50;;;3.40;;
41099;SDS011;26844;53.686;-6.346;2024-03-08T10:14:04;3.67;;;3.58;;
41099;SDS011;26844;53.686;-6.346;2024-03-08T10:16:31;4.13;;;4.03;;
41099;SDS011;26844;53.686;-6.346;2024-03-08T10:18:56;4.13;;;4.03;;
41099;SDS011;26844;53.686;-6.346;2024-03-08T10:21:22;4.00;;;3.90;;
41099;SDS011;26844;53.686;-6.346;2024-03-08T10:23:47;3.83;;;3.72;;
41099;SDS011;26844;53.686;-6.346;2024-03-08T10:26:13;3.80;;;3.70;;
41099;SDS011;26844;53.686;-6.346;2024-03-08T10:28:40;4.20;;;4.10;;
41099;SDS011;26844;53.686;-6.346;2024-03-08T10:31:05;4.55;;;4.45;;
41099;SDS011;26844;53.686;-6.346;2024-03-08T10:33:31;4.07;;;3.97;;
41099;SDS011;26844;53.686;-6.346;2024-03-08T10:35:56;4.30;;;4.20;;
41099;SDS011;26844;53.686;-6.346;2024-03-08T10:38:22;3.95;;;3.85;;
41099;SDS011;26844;53.686;-6.346;2024-03-08T10:40:47;4.03;;;3.92;;
41099;SDS011;26844;53.686;-6.346;2024-03-08T10:43:26;3.70;;;3.60;;
41099;SDS011;26844;53.686;-6.346;2024-03-08T10:46:06;3.40;;;3.30;;
41099;SDS011;26844;53.686;-6.346;2024-03-08T10:48:36;3.53;;;3.42;;
41099;SDS011;26844;53.686;-6.346;2024-03-08T10:51:03;3.00;;;2.90;;
41099;SDS011;26844;53.686;-6.346;2024-03-08T10:53:28;4.00;;;3.90;;
41099;SDS011;26844;53.686;-6.346;2024-03-08T10:55:57;3.30;;;3.20;;
41099;SDS011;26844;53.686;-6.346;2024-03-08T10:58:23;3.28;;;3.17;;
41099;SDS011;26844;53.686;-6.346;2024-03-08T11:00:51;3.45;;;3.35;;
41099;SDS011;26844;53.686;-6.346;2024-03-08T11:06:02;2.90;;;2.80;;
41099;SDS011;26844;53.686;-6.346;2024-03-08T11:08:28;3.60;;;3.50;;
41099;SDS011;26844;53.686;-6.346;2024-03-08T11:10:56;3.40;;;3.30;;
41099;SDS011;26844;53.686;-6.346;2024-03-08T11:13:40;4.00;;;3.90;;
41099;SDS011;26844;53.686;-6.346;2024-03-08T11:18:50;4.00;;;3.90;;
41099;SDS011;26844;53.686;-6.346;2024-03-08T11:21:15;4.13;;;4.03;;
41099;SDS011;26844;53.686;-6.346;2024-03-08T11:23:42;3.80;;;3.70;;
41099;SDS011;26844;53.686;-6.346;2024-03-08T11:26:20;4.20;;;4.10;;
41099;SDS011;26844;53.686;-6.346;2024-03-08T11:28:48;4.53;;;4.43;;
41099;SDS011;26844;53.686;-6.346;2024-03-08T11:31:23;4.00;;;3.90;;
41099;SDS011;26844;53.686;-6.346;2024-03-08T11:33:48;4.20;;;4.10;;
41099;SDS011;26844;53.686;-6.346;2024-03-08T11:36:21;4.80;;;4.65;;
41099;SDS011;26844;53.686;-6.346;2024-03-08T11:38:47;4.30;;;4.20;;
41099;SDS011;26844;53.686;-6.346;2024-03-08T11:41:23;4.07;;;3.97;;
41099;SDS011;26844;53.686;-6.346;2024-03-08T11:43:49;3.90;;;3.80;;
41099;SDS011;26844;53.686;-6.346;2024-03-08T11:46:15;4.07;;;3.97;;
41099;SDS011;26844;53.686;-6.346;2024-03-08T11:48:41;4.20;;;4.10;;
41099;SDS011;26844;53.686;-6.346;2024-03-08T11:51:07;4.20;;;4.10;;
41099;SDS011;26844;53.686;-6.346;2024-03-08T11:53:33;3.95;;;3.85;;
41099;SDS011;26844;53.686;-6.346;2024-03-08T11:58:53;3.70;;;3.60;;
41099;SDS011;26844;53.686;-6.346;2024-03-08T12:01:18;4.20;;;4.10;;
41099;SDS011;26844;53.686;-6.346;2024-03-08T12:03:43;4.03;;;3.92;;
41099;SDS011;26844;53.686;-6.346;2024-03-08T12:06:09;4.40;;;4.30;;
41099;SDS011;26844;53.686;-6.346;2024-03-08T12:08:37;4.20;;;4.10;;
41099;SDS011;26844;53.686;-6.346;2024-03-08T12:11:06;3.92;;;3.83;;
41099;SDS011;26844;53.686;-6.346;2024-03-08T12:13:32;3.75;;;3.65;;
41099;SDS011;26844;53.686;-6.346;2024-03-08T12:15:59;3.97;;;3.87;;
41099;SDS011;26844;53.686;-6.346;2024-03-08T12:18:27;3.60;;;3.50;;
41099;SDS011;26844;53.686;-6.346;2024-03-08T12:23:32;3.42;;;3.33;;
41099;SDS011;26844;53.686;-6.346;2024-03-08T12:26:08;3.28;;;3.17;;
41099;SDS011;26844;53.686;-6.346;2024-03-08T12:28:38;3.58;;;3.47;;
41099;SDS011;26844;53.686;-6.346;2024-03-08T12:31:03;3.17;;;3.08;;
41099;SDS011;26844;53.686;-6.346;2024-03-08T12:33:30;3.20;;;3.10;;
41099;SDS011;26844;53.686;-6.346;2024-03-08T12:35:56;3.53;;;3.42;;
41099;SDS011;26844;53.686;-6.346;2024-03-08T12:38:23;3.70;;;3.60;;
41099;SDS011;26844;53.686;-6.346;2024-03-08T12:40:55;3.50;;;3.40;;
41099;SDS011;26844;53.686;-6.346;2024-03-08T12:43:22;3.35;;;3.25;;
41099;SDS011;26844;53.686;-6.346;2024-03-08T12:45:47;3.40;;;3.30;;
41099;SDS011;26844;53.686;-6.346;2024-03-08T12:48:12;3.80;;;3.70;;
41099;SDS011;26844;53.686;-6.346;2024-03-08T12:50:42;3.60;;;3.50;;
41099;SDS011;26844;53.686;-6.346;2024-03-08T12:53:10;3.75;;;3.65;;
41099;SDS011;26844;53.686;-6.346;2024-03-08T12:55:36;3.50;;;3.40;;
41099;SDS011;26844;53.686;-6.346;2024-03-08T12:58:01;3.30;;;3.20;;
41099;SDS011;26844;53.686;-6.346;2024-03-08T13:00:26;3.60;;;3.50;;
41099;SDS011;26844;53.686;-6.346;2024-03-08T13:02:53;3.50;;;3.40;;
41099;SDS011;26844;53.686;-6.346;2024-03-08T13:05:18;3.28;;;3.17;;
41099;SDS011;26844;53.686;-6.346;2024-03-08T13:07:45;3.10;;;3.00;;
41099;SDS011;26844;53.686;-6.346;2024-03-08T13:10:11;3.22;;;3.13;;
41099;SDS011;26844;53.686;-6.346;2024-03-08T13:12:39;2.83;;;2.72;;
41099;SDS011;26844;53.686;-6.346;2024-03-08T13:15:05;3.10;;;3.00;;
41099;SDS011;26844;53.686;-6.346;2024-03-08T13:17:30;2.90;;;2.80;;
41099;SDS011;26844;53.686;-6.346;2024-03-08T13:19:55;2.95;;;2.85;;
41099;SDS011;26844;53.686;-6.346;2024-03-08T13:22:22;3.42;;;3.33;;
41099;SDS011;26844;53.686;-6.346;2024-03-08T13:24:49;2.83;;;2.72;;
41099;SDS011;26844;53.686;-6.346;2024-03-08T13:27:15;2.90;;;2.80;;
41099;SDS011;26844;53.686;-6.346;2024-03-08T13:29:49;2.63;;;2.53;;
41099;SDS011;26844;53.686;-6.346;2024-03-08T13:34:43;2.70;;;2.60;;
41099;SDS011;26844;53.686;-6.346;2024-03-08T13:37:09;2.90;;;2.80;;
41099;SDS011;26844;53.686;-6.346;2024-03-08T13:39:36;2.60;;;2.50;;
41099;SDS011;26844;53.686;-6.346;2024-03-08T13:42:11;2.90;;;2.80;;
41099;SDS011;26844;53.686;-6.346;2024-03-08T13:44:38;2.88;;;2.78;;
41099;SDS011;26844;53.686;-6.346;2024-03-08T13:47:04;3.28;;;3.17;;
41099;SDS011;26844;53.686;-6.346;2024-03-08T13:49:29;3.25;;;3.15;;
41099;SDS011;26844;53.686;-6.346;2024-03-08T13:51:55;3.05;;;2.95;;
41099;SDS011;26844;53.686;-6.346;2024-03-08T13:54:20;3.55;;;3.45;;
41099;SDS011;26844;53.686;-6.346;2024-03-08T13:56:46;3.60;;;3.50;;
41099;SDS011;26844;53.686;-6.346;2024-03-08T13:59:11;3.45;;;3.35;;
41099;SDS011;26844;53.686;-6.346;2024-03-08T14:01:38;3.35;;;3.25;;
41099;SDS011;26844;53.686;-6.346;2024-03-08T14:04:03;3.60;;;3.50;;
41099;SDS011;26844;53.686;-6.346;2024-03-08T14:06:29;3.40;;;3.30;;
41099;SDS011;26844;53.686;-6.346;2024-03-08T14:08:55;3.90;;;3.80;;
41099;SDS011;26844;53.686;-6.346;2024-03-08T14:11:21;3.80;;;3.70;;
41099;SDS011;26844;53.686;-6.346;2024-03-08T14:13:49;4.00;;;3.90;;
41099;SDS011;26844;53.686;-6.346;2024-03-08T14:16:14;3.50;;;3.40;;
41099;SDS011;26844;53.686;-6.346;2024-03-08T14:18:42;3.38;;;3.28;;
41099;SDS011;26844;53.686;-6.346;2024-03-08T14:21:08;3.88;;;3.78;;
41099;SDS011;26844;53.686;-6.346;2024-03-08T14:23:33;3.95;;;3.85;;
41099;SDS011;26844;53.686;-6.346;2024-03-08T14:25:59;3.80;;;3.70;;
41099;SDS011;26844;53.686;-6.346;2024-03-08T14:28:24;3.70;;;3.60;;
41099;SDS011;26844;53.686;-6.346;2024-03-08T14:30:51;3.83;;;3.72;;
41099;SDS011;26844;53.686;-6.346;2024-03-08T14:33:17;4.18;;;4.07;;
41099;SDS011;26844;53.686;-6.346;2024-03-08T14:35:42;4.05;;;3.95;;
41099;SDS011;26844;53.686;-6.346;2024-03-08T14:38:08;4.18;;;4.07;;
41099;SDS011;26844;53.686;-6.346;2024-03-08T14:40:34;3.70;;;3.60;;
41099;SDS011;26844;53.686;-6.346;2024-03-08T14:42:59;3.45;;;3.35;;